sensor_id;sensor_type;location;lat;lon;timestamp;temperature;humidity
82231;DHT22;71832;45.138;9.816;2024-03-17T00:02:11;11.50;87.50
82231;DHT22;71832;45.138;9.816;2024-03-17T00:04:39;11.50;88.20
82231;DHT22;71832;45.138;9.816;2024-03-17T00:07:07;11.50;88.70
82231;DHT22;71832;45.138;9.816;2024-03-17T00:09:34;11.50;89.00
82231;DHT22;71832;45.138;9.816;2024-03-17T00:12:02;11.50;89.30
82231;DHT22;71832;45.138;9.816;2024-03-17T00:14:30;11.50;89.40
82231;DHT22;71832;45.138;9.816;2024-03-17T00:16:58;11.50;89.50
82231;DHT22;71832;45.138;9.816;2024-03-17T00:19:27;11.50;89.80
82231;DHT22;71832;45.138;9.816;2024-03-17T00:21:55;11.50;90.30
82231;DHT22;71832;45.138;9.816;2024-03-17T00:24:23;11.50;90.70
82231;DHT22;71832;45.138;9.816;2024-03-17T00:26:51;11.50;91.10
82231;DHT22;71832;45.138;9.816;2024-03-17T00:29:20;11.50;91.10
82231;DHT22;71832;45.138;9.816;2024-03-17T00:31:47;11.50;91.00
82231;DHT22;71832;45.138;9.816;2024-03-17T00:34:15;11.50;91.30
82231;DHT22;71832;45.138;9.816;2024-03-17T00:36:43;11.50;91.50
82231;DHT22;71832;45.138;9.816;2024-03-17T00:39:11;11.50;91.50
82231;DHT22;71832;45.138;9.816;2024-03-17T00:41:39;11.60;91.60
82231;DHT22;71832;45.138;9.816;2024-03-17T00:44:07;11.60;91.40
82231;DHT22;71832;45.138;9.816;2024-03-17T00:46:35;11.60;91.30
82231;DHT22;71832;45.138;9.816;2024-03-17T00:49:03;11.60;91.40
82231;DHT22;71832;45.138;9.816;2024-03-17T00:51:32;11.60;91.10
82231;DHT22;71832;45.138;9.816;2024-03-17T00:54:00;11.60;90.60
82231;DHT22;71832;45.138;9.816;2024-03-17T00:56:28;11.60;90.20
82231;DHT22;71832;45.138;9.816;2024-03-17T00:58:56;11.50;90.40
82231;DHT22;71832;45.138;9.816;2024-03-17T01:01:25;11.50;90.70
82231;DHT22;71832;45.138;9.816;2024-03-17T01:03:54;11.50;90.70
82231;DHT22;71832;45.138;9.816;2024-03-17T01:06:22;11.60;90.60
82231;DHT22;71832;45.138;9.816;2024-03-17T01:08:50;11.60;90.30
82231;DHT22;71832;45.138;9.816;2024-03-17T01:11:19;11.50;89.80
82231;DHT22;71832;45.138;9.816;2024-03-17T01:13:47;11.50;89.60
82231;DHT22;71832;45.138;9.816;2024-03-17T01:16:15;11.50;89.60
82231;DHT22;71832;45.138;9.816;2024-03-17T01:18:43;11.50;89.80
82231;DHT22;71832;45.138;9.816;2024-03-17T01:21:13;11.40;89.60
82231;DHT22;71832;45.138;9.816;2024-03-17T01:23:42;11.30;90.00
82231;DHT22;71832;45.138;9.816;2024-03-17T01:26:10;11.30;90.40
82231;DHT22;71832;45.138;9.816;2024-03-17T01:28:38;11.30;90.50
82231;DHT22;71832;45.138;9.816;2024-03-17T01:31:07;11.30;90.50
82231;DHT22;71832;45.138;9.816;2024-03-17T01:33:36;11.20;90.20
82231;DHT22;71832;45.138;9.816;2024-03-17T01:36:03;11.20;90.40
82231;DHT22;71832;45.138;9.816;2024-03-17T01:38:32;11.20;90.70
82231;DHT22;71832;45.138;9.816;2024-03-17T01:40:59;11.10;90.60
82231;DHT22;71832;45.138;9.816;2024-03-17T01:43:27;11.10;90.80
82231;DHT22;71832;45.138;9.816;2024-03-17T01:45:55;11.10;90.90
82231;DHT22;71832;45.138;9.816;2024-03-17T01:48:23;11.10;91.10
82231;DHT22;71832;45.138;9.816;2024-03-17T01:50:53;11.10;91.30
82231;DHT22;71832;45.138;9.816;2024-03-17T01:53:23;11.10;91.20
82231;DHT22;71832;45.138;9.816;2024-03-17T01:55:57;11.10;91.40
82231;DHT22;71832;45.138;9.816;2024-03-17T01:58:26;11.10;91.50
82231;DHT22;71832;45.138;9.816;2024-03-17T02:00:54;11.10;91.40
82231;DHT22;71832;45.138;9.816;2024-03-17T02:03:22;11.10;91.10
82231;DHT22;71832;45.138;9.816;2024-03-17T02:05:50;11.10;90.60
82231;DHT22;71832;45.138;9.816;2024-03-17T02:08:18;11.10;90.70
82231;DHT22;71832;45.138;9.816;2024-03-17T02:10:53;11.10;91.10
82231;DHT22;71832;45.138;9.816;2024-03-17T02:13:22;11.10;91.30
82231;DHT22;71832;45.138;9.816;2024-03-17T02:15:50;11.10;91.30
82231;DHT22;71832;45.138;9.816;2024-03-17T02:18:21;11.20;91.40
82231;DHT22;71832;45.138;9.816;2024-03-17T02:20:49;11.20;90.80
82231;DHT22;71832;45.138;9.816;2024-03-17T02:23:27;11.10;90.10
82231;DHT22;71832;45.138;9.816;2024-03-17T02:25:55;11.10;90.10
82231;DHT22;71832;45.138;9.816;2024-03-17T02:28:24;11.10;90.10
82231;DHT22;71832;45.138;9.816;2024-03-17T02:30:53;11.00;90.00
82231;DHT22;71832;45.138;9.816;2024-03-17T02:33:21;10.90;90.40
82231;DHT22;71832;45.138;9.816;2024-03-17T02:35:50;10.80;90.60
82231;DHT22;71832;45.138;9.816;2024-03-17T02:38:19;10.80;90.90
82231;DHT22;71832;45.138;9.816;2024-03-17T02:41:06;10.70;91.50
82231;DHT22;71832;45.138;9.816;2024-03-17T02:43:36;10.70;91.80
82231;DHT22;71832;45.138;9.816;2024-03-17T02:46:05;10.60;92.00
82231;DHT22;71832;45.138;9.816;2024-03-17T02:48:35;10.60;91.60
82231;DHT22;71832;45.138;9.816;2024-03-17T02:51:05;10.60;91.20
82231;DHT22;71832;45.138;9.816;2024-03-17T02:53:33;10.60;90.90
82231;DHT22;71832;45.138;9.816;2024-03-17T02:56:02;10.60;91.20
82231;DHT22;71832;45.138;9.816;2024-03-17T02:58:30;10.50;91.50
82231;DHT22;71832;45.138;9.816;2024-03-17T03:00:57;10.50;92.00
82231;DHT22;71832;45.138;9.816;2024-03-17T03:03:25;10.50;92.50
82231;DHT22;71832;45.138;9.816;2024-03-17T03:05:54;10.60;92.70
82231;DHT22;71832;45.138;9.816;2024-03-17T03:08:23;10.50;92.40
82231;DHT22;71832;45.138;9.816;2024-03-17T03:10:52;10.50;90.30
82231;DHT22;71832;45.138;9.816;2024-03-17T03:13:21;10.40;89.90
82231;DHT22;71832;45.138;9.816;2024-03-17T03:15:50;10.40;91.10
82231;DHT22;71832;45.138;9.816;2024-03-17T03:18:18;10.40;91.70
82231;DHT22;71832;45.138;9.816;2024-03-17T03:20:55;10.40;92.00
82231;DHT22;71832;45.138;9.816;2024-03-17T03:23:24;10.40;91.40
82231;DHT22;71832;45.138;9.816;2024-03-17T03:25:57;10.30;91.50
82231;DHT22;71832;45.138;9.816;2024-03-17T03:28:26;10.30;92.20
82231;DHT22;71832;45.138;9.816;2024-03-17T03:30:55;10.30;93.10
82231;DHT22;71832;45.138;9.816;2024-03-17T03:33:24;10.30;93.60
82231;DHT22;71832;45.138;9.816;2024-03-17T03:35:52;10.30;94.00
82231;DHT22;71832;45.138;9.816;2024-03-17T03:38:21;10.30;94.10
82231;DHT22;71832;45.138;9.816;2024-03-17T03:40:50;10.40;93.80
82231;DHT22;71832;45.138;9.816;2024-03-17T03:43:19;10.40;94.10
82231;DHT22;71832;45.138;9.816;2024-03-17T03:45:48;10.40;94.20
82231;DHT22;71832;45.138;9.816;2024-03-17T03:48:16;10.50;94.60
82231;DHT22;71832;45.138;9.816;2024-03-17T03:50:45;10.50;94.90
82231;DHT22;71832;45.138;9.816;2024-03-17T03:53:14;10.50;95.30
82231;DHT22;71832;45.138;9.816;2024-03-17T03:55:42;10.50;95.50
82231;DHT22;71832;45.138;9.816;2024-03-17T03:58:11;10.50;95.50
82231;DHT22;71832;45.138;9.816;2024-03-17T04:00:40;10.60;95.70
82231;DHT22;71832;45.138;9.816;2024-03-17T04:03:08;10.60;95.70
82231;DHT22;71832;45.138;9.816;2024-03-17T04:05:36;10.60;95.40
82231;DHT22;71832;45.138;9.816;2024-03-17T04:08:04;10.60;94.80
82231;DHT22;71832;45.138;9.816;2024-03-17T04:10:33;10.70;94.50
82231;DHT22;71832;45.138;9.816;2024-03-17T04:13:02;10.70;94.00
82231;DHT22;71832;45.138;9.816;2024-03-17T04:15:30;10.60;93.60
82231;DHT22;71832;45.138;9.816;2024-03-17T04:17:58;10.60;92.70
82231;DHT22;71832;45.138;9.816;2024-03-17T04:20:26;10.60;92.80
82231;DHT22;71832;45.138;9.816;2024-03-17T04:22:54;10.50;93.80
82231;DHT22;71832;45.138;9.816;2024-03-17T04:25:23;10.50;94.40
82231;DHT22;71832;45.138;9.816;2024-03-17T04:27:52;10.50;94.70
82231;DHT22;71832;45.138;9.816;2024-03-17T04:30:20;10.50;93.70
82231;DHT22;71832;45.138;9.816;2024-03-17T04:32:49;10.60;93.00
82231;DHT22;71832;45.138;9.816;2024-03-17T04:35:19;10.60;93.00
82231;DHT22;71832;45.138;9.816;2024-03-17T04:37:48;10.60;92.90
82231;DHT22;71832;45.138;9.816;2024-03-17T04:40:16;10.50;92.60
82231;DHT22;71832;45.138;9.816;2024-03-17T04:42:46;10.50;92.20
82231;DHT22;71832;45.138;9.816;2024-03-17T04:45:15;10.40;92.00
82231;DHT22;71832;45.138;9.816;2024-03-17T04:47:43;10.40;92.10
82231;DHT22;71832;45.138;9.816;2024-03-17T04:50:14;10.40;91.80
82231;DHT22;71832;45.138;9.816;2024-03-17T04:52:43;10.30;92.70
82231;DHT22;71832;45.138;9.816;2024-03-17T04:55:12;10.30;92.80
82231;DHT22;71832;45.138;9.816;2024-03-17T04:57:40;10.30;92.20
82231;DHT22;71832;45.138;9.816;2024-03-17T05:00:09;10.30;92.20
82231;DHT22;71832;45.138;9.816;2024-03-17T05:02:39;10.30;92.00
82231;DHT22;71832;45.138;9.816;2024-03-17T05:05:07;10.20;91.80
82231;DHT22;71832;45.138;9.816;2024-03-17T05:07:37;10.20;92.10
82231;DHT22;71832;45.138;9.816;2024-03-17T05:10:05;10.20;92.90
82231;DHT22;71832;45.138;9.816;2024-03-17T05:12:33;10.20;93.50
82231;DHT22;71832;45.138;9.816;2024-03-17T05:15:01;10.20;93.80
82231;DHT22;71832;45.138;9.816;2024-03-17T05:17:31;10.30;94.00
82231;DHT22;71832;45.138;9.816;2024-03-17T05:19:59;10.30;94.20
82231;DHT22;71832;45.138;9.816;2024-03-17T05:22:28;10.30;94.30
82231;DHT22;71832;45.138;9.816;2024-03-17T05:24:55;10.30;94.80
82231;DHT22;71832;45.138;9.816;2024-03-17T05:27:23;10.30;94.40
82231;DHT22;71832;45.138;9.816;2024-03-17T05:29:51;10.30;94.10
82231;DHT22;71832;45.138;9.816;2024-03-17T05:32:19;10.30;94.00
82231;DHT22;71832;45.138;9.816;2024-03-17T05:34:47;10.30;94.10
82231;DHT22;71832;45.138;9.816;2024-03-17T05:37:14;10.30;93.70
82231;DHT22;71832;45.138;9.816;2024-03-17T05:39:42;10.20;93.50
82231;DHT22;71832;45.138;9.816;2024-03-17T05:42:11;10.20;93.50
82231;DHT22;71832;45.138;9.816;2024-03-17T05:44:39;10.20;93.80
82231;DHT22;71832;45.138;9.816;2024-03-17T05:47:18;10.20;94.00
82231;DHT22;71832;45.138;9.816;2024-03-17T05:49:46;10.20;94.40
82231;DHT22;71832;45.138;9.816;2024-03-17T05:52:14;10.20;94.20
82231;DHT22;71832;45.138;9.816;2024-03-17T05:54:43;10.20;94.10
82231;DHT22;71832;45.138;9.816;2024-03-17T05:57:12;10.20;94.00
82231;DHT22;71832;45.138;9.816;2024-03-17T05:59:43;10.20;93.10
82231;DHT22;71832;45.138;9.816;2024-03-17T06:02:12;10.20;93.20
82231;DHT22;71832;45.138;9.816;2024-03-17T06:04:41;10.10;92.90
82231;DHT22;71832;45.138;9.816;2024-03-17T06:07:08;10.10;92.90
82231;DHT22;71832;45.138;9.816;2024-03-17T06:09:36;10.10;92.80
82231;DHT22;71832;45.138;9.816;2024-03-17T06:12:04;10.10;93.00
82231;DHT22;71832;45.138;9.816;2024-03-17T06:14:32;10.10;93.00
82231;DHT22;71832;45.138;9.816;2024-03-17T06:17:01;10.00;93.00
82231;DHT22;71832;45.138;9.816;2024-03-17T06:19:31;10.00;93.00
82231;DHT22;71832;45.138;9.816;2024-03-17T06:21:59;10.00;93.00
82231;DHT22;71832;45.138;9.816;2024-03-17T06:24:29;10.00;92.90
82231;DHT22;71832;45.138;9.816;2024-03-17T06:26:56;10.00;92.90
82231;DHT22;71832;45.138;9.816;2024-03-17T06:29:32;10.00;92.80
82231;DHT22;71832;45.138;9.816;2024-03-17T06:32:15;10.10;92.90
82231;DHT22;71832;45.138;9.816;2024-03-17T06:34:44;10.10;92.70
82231;DHT22;71832;45.138;9.816;2024-03-17T06:37:12;10.10;92.90
82231;DHT22;71832;45.138;9.816;2024-03-17T06:39:40;10.20;93.00
82231;DHT22;71832;45.138;9.816;2024-03-17T06:42:07;10.20;93.20
82231;DHT22;71832;45.138;9.816;2024-03-17T06:44:36;10.20;93.40
82231;DHT22;71832;45.138;9.816;2024-03-17T06:47:04;10.30;93.90
82231;DHT22;71832;45.138;9.816;2024-03-17T06:49:32;10.40;94.20
82231;DHT22;71832;45.138;9.816;2024-03-17T06:52:00;10.40;94.50
82231;DHT22;71832;45.138;9.816;2024-03-17T06:54:29;10.50;95.00
82231;DHT22;71832;45.138;9.816;2024-03-17T06:56:59;10.60;95.20
82231;DHT22;71832;45.138;9.816;2024-03-17T06:59:27;10.60;95.50
82231;DHT22;71832;45.138;9.816;2024-03-17T07:01:56;10.70;96.20
82231;DHT22;71832;45.138;9.816;2024-03-17T07:04:24;10.80;96.40
82231;DHT22;71832;45.138;9.816;2024-03-17T07:06:53;10.80;96.60
82231;DHT22;71832;45.138;9.816;2024-03-17T07:09:21;10.90;96.80
82231;DHT22;71832;45.138;9.816;2024-03-17T07:11:49;10.90;97.20
82231;DHT22;71832;45.138;9.816;2024-03-17T07:14:17;11.00;97.00
82231;DHT22;71832;45.138;9.816;2024-03-17T07:16:45;11.00;96.90
82231;DHT22;71832;45.138;9.816;2024-03-17T07:19:13;11.00;97.00
82231;DHT22;71832;45.138;9.816;2024-03-17T07:21:41;11.10;97.00
82231;DHT22;71832;45.138;9.816;2024-03-17T07:24:08;11.20;96.60
82231;DHT22;71832;45.138;9.816;2024-03-17T07:26:36;11.30;96.00
82231;DHT22;71832;45.138;9.816;2024-03-17T07:29:04;11.40;95.50
82231;DHT22;71832;45.138;9.816;2024-03-17T07:31:32;11.50;95.10
82231;DHT22;71832;45.138;9.816;2024-03-17T07:34:01;11.50;95.30
82231;DHT22;71832;45.138;9.816;2024-03-17T07:36:30;11.70;95.00
82231;DHT22;71832;45.138;9.816;2024-03-17T07:38:58;11.70;94.40
82231;DHT22;71832;45.138;9.816;2024-03-17T07:41:27;11.90;94.40
82231;DHT22;71832;45.138;9.816;2024-03-17T07:43:56;11.90;94.60
82231;DHT22;71832;45.138;9.816;2024-03-17T07:46:24;12.00;94.90
82231;DHT22;71832;45.138;9.816;2024-03-17T07:48:52;12.10;95.30
82231;DHT22;71832;45.138;9.816;2024-03-17T07:51:21;12.20;95.00
82231;DHT22;71832;45.138;9.816;2024-03-17T07:53:50;12.30;94.40
82231;DHT22;71832;45.138;9.816;2024-03-17T07:56:19;12.30;93.90
82231;DHT22;71832;45.138;9.816;2024-03-17T07:58:48;12.40;93.70
82231;DHT22;71832;45.138;9.816;2024-03-17T08:01:18;12.50;92.80
82231;DHT22;71832;45.138;9.816;2024-03-17T08:03:47;12.50;92.60
82231;DHT22;71832;45.138;9.816;2024-03-17T08:06:20;12.70;92.90
82231;DHT22;71832;45.138;9.816;2024-03-17T08:08:48;12.70;92.80
82231;DHT22;71832;45.138;9.816;2024-03-17T08:11:17;12.80;92.80
82231;DHT22;71832;45.138;9.816;2024-03-17T08:13:45;12.90;92.60
82231;DHT22;71832;45.138;9.816;2024-03-17T08:16:15;13.00;92.40
82231;DHT22;71832;45.138;9.816;2024-03-17T08:18:44;13.10;92.10
82231;DHT22;71832;45.138;9.816;2024-03-17T08:21:13;13.10;91.60
82231;DHT22;71832;45.138;9.816;2024-03-17T08:23:41;13.20;92.00
82231;DHT22;71832;45.138;9.816;2024-03-17T08:26:09;13.30;92.20
82231;DHT22;71832;45.138;9.816;2024-03-17T08:28:37;13.30;92.30
82231;DHT22;71832;45.138;9.816;2024-03-17T08:31:06;13.50;92.00
82231;DHT22;71832;45.138;9.816;2024-03-17T08:33:35;13.50;92.30
82231;DHT22;71832;45.138;9.816;2024-03-17T08:36:04;13.60;92.20
82231;DHT22;71832;45.138;9.816;2024-03-17T08:38:35;13.70;91.90
82231;DHT22;71832;45.138;9.816;2024-03-17T08:41:06;13.70;91.90
82231;DHT22;71832;45.138;9.816;2024-03-17T08:43:35;13.90;91.50
82231;DHT22;71832;45.138;9.816;2024-03-17T08:46:06;13.90;91.30
82231;DHT22;71832;45.138;9.816;2024-03-17T08:48:36;14.00;90.90
82231;DHT22;71832;45.138;9.816;2024-03-17T08:51:07;14.10;90.40
82231;DHT22;71832;45.138;9.816;2024-03-17T08:53:36;14.10;90.10
82231;DHT22;71832;45.138;9.816;2024-03-17T08:56:06;14.20;90.20
82231;DHT22;71832;45.138;9.816;2024-03-17T08:58:35;14.20;90.70
82231;DHT22;71832;45.138;9.816;2024-03-17T09:01:08;14.30;89.90
82231;DHT22;71832;45.138;9.816;2024-03-17T09:03:37;14.30;89.40
82231;DHT22;71832;45.138;9.816;2024-03-17T09:06:16;14.40;88.70
82231;DHT22;71832;45.138;9.816;2024-03-17T09:08:46;14.40;88.50
82231;DHT22;71832;45.138;9.816;2024-03-17T09:11:15;14.40;89.10
82231;DHT22;71832;45.138;9.816;2024-03-17T09:13:44;14.40;88.60
82231;DHT22;71832;45.138;9.816;2024-03-17T09:16:13;14.50;88.50
82231;DHT22;71832;45.138;9.816;2024-03-17T09:18:41;14.50;88.30
82231;DHT22;71832;45.138;9.816;2024-03-17T09:21:10;14.60;88.40
82231;DHT22;71832;45.138;9.816;2024-03-17T09:23:40;14.60;88.70
82231;DHT22;71832;45.138;9.816;2024-03-17T09:26:10;14.70;88.40
82231;DHT22;71832;45.138;9.816;2024-03-17T09:28:41;14.70;88.60
82231;DHT22;71832;45.138;9.816;2024-03-17T09:31:11;14.70;89.40
82231;DHT22;71832;45.138;9.816;2024-03-17T09:33:40;14.70;89.20
82231;DHT22;71832;45.138;9.816;2024-03-17T09:36:10;14.80;88.30
82231;DHT22;71832;45.138;9.816;2024-03-17T09:38:40;14.90;88.50
82231;DHT22;71832;45.138;9.816;2024-03-17T09:41:08;15.00;88.40
82231;DHT22;71832;45.138;9.816;2024-03-17T09:43:48;15.00;86.90
82231;DHT22;71832;45.138;9.816;2024-03-17T09:46:18;15.00;86.90
82231;DHT22;71832;45.138;9.816;2024-03-17T09:48:47;15.20;86.70
82231;DHT22;71832;45.138;9.816;2024-03-17T09:51:20;15.20;87.70
82231;DHT22;71832;45.138;9.816;2024-03-17T09:53:49;15.30;87.70
82231;DHT22;71832;45.138;9.816;2024-03-17T09:56:19;15.40;86.50
82231;DHT22;71832;45.138;9.816;2024-03-17T09:58:49;15.50;86.10
82231;DHT22;71832;45.138;9.816;2024-03-17T10:01:18;15.60;86.30
82231;DHT22;71832;45.138;9.816;2024-03-17T10:03:52;15.60;86.50
82231;DHT22;71832;45.138;9.816;2024-03-17T10:06:23;15.70;85.70
82231;DHT22;71832;45.138;9.816;2024-03-17T10:08:53;15.70;85.80
82231;DHT22;71832;45.138;9.816;2024-03-17T10:11:24;15.80;86.80
82231;DHT22;71832;45.138;9.816;2024-03-17T10:14:07;15.80;86.60
82231;DHT22;71832;45.138;9.816;2024-03-17T10:16:37;16.00;85.40
82231;DHT22;71832;45.138;9.816;2024-03-17T10:19:09;16.00;84.90
82231;DHT22;71832;45.138;9.816;2024-03-17T10:21:40;16.10;84.20
82231;DHT22;71832;45.138;9.816;2024-03-17T10:24:13;16.10;83.80
82231;DHT22;71832;45.138;9.816;2024-03-17T10:26:44;16.10;83.80
82231;DHT22;71832;45.138;9.816;2024-03-17T10:29:33;16.20;83.70
82231;DHT22;71832;45.138;9.816;2024-03-17T10:32:12;16.20;83.30
82231;DHT22;71832;45.138;9.816;2024-03-17T10:34:41;16.30;83.70
82231;DHT22;71832;45.138;9.816;2024-03-17T10:37:21;16.30;83.50
82231;DHT22;71832;45.138;9.816;2024-03-17T10:39:54;16.40;83.60
82231;DHT22;71832;45.138;9.816;2024-03-17T10:42:28;16.40;83.00
82231;DHT22;71832;45.138;9.816;2024-03-17T10:44:59;16.40;82.60
82231;DHT22;71832;45.138;9.816;2024-03-17T10:47:28;16.50;82.40
82231;DHT22;71832;45.138;9.816;2024-03-17T10:49:56;16.50;82.10
82231;DHT22;71832;45.138;9.816;2024-03-17T10:52:24;16.50;81.40
82231;DHT22;71832;45.138;9.816;2024-03-17T10:54:54;16.60;81.20
82231;DHT22;71832;45.138;9.816;2024-03-17T10:57:44;16.60;81.60
82231;DHT22;71832;45.138;9.816;2024-03-17T11:00:20;16.60;82.50
82231;DHT22;71832;45.138;9.816;2024-03-17T11:02:51;16.70;82.00
82231;DHT22;71832;45.138;9.816;2024-03-17T11:05:22;16.70;81.70
82231;DHT22;71832;45.138;9.816;2024-03-17T11:07:52;16.70;80.80
82231;DHT22;71832;45.138;9.816;2024-03-17T11:10:24;16.80;81.10
82231;DHT22;71832;45.138;9.816;2024-03-17T11:12:55;16.80;81.20
82231;DHT22;71832;45.138;9.816;2024-03-17T11:17:54;16.90;81.50
82231;DHT22;71832;45.138;9.816;2024-03-17T11:20:24;16.90;81.30
82231;DHT22;71832;45.138;9.816;2024-03-17T11:22:56;17.00;80.90
82231;DHT22;71832;45.138;9.816;2024-03-17T11:27:58;17.00;80.90
82231;DHT22;71832;45.138;9.816;2024-03-17T11:30:50;17.00;80.60
82231;DHT22;71832;45.138;9.816;2024-03-17T11:39:03;17.00;80.40
82231;DHT22;71832;45.138;9.816;2024-03-17T11:41:43;17.10;80.90
82231;DHT22;71832;45.138;9.816;2024-03-17T11:44:25;17.20;78.50
82231;DHT22;71832;45.138;9.816;2024-03-17T11:46:58;17.20;78.30
82231;DHT22;71832;45.138;9.816;2024-03-17T11:49:27;17.20;78.30
82231;DHT22;71832;45.138;9.816;2024-03-17T11:51:58;17.20;78.00
82231;DHT22;71832;45.138;9.816;2024-03-17T11:54:29;17.30;77.40
82231;DHT22;71832;45.138;9.816;2024-03-17T11:57:02;17.30;77.70
82231;DHT22;71832;45.138;9.816;2024-03-17T11:59:33;17.30;78.00
82231;DHT22;71832;45.138;9.816;2024-03-17T12:02:01;17.40;76.60
82231;DHT22;71832;45.138;9.816;2024-03-17T12:04:30;17.40;76.30
82231;DHT22;71832;45.138;9.816;2024-03-17T12:06:59;17.40;77.30
82231;DHT22;71832;45.138;9.816;2024-03-17T12:09:29;17.50;77.60
82231;DHT22;71832;45.138;9.816;2024-03-17T12:12:21;17.50;77.50
82231;DHT22;71832;45.138;9.816;2024-03-17T12:14:49;17.50;77.90
82231;DHT22;71832;45.138;9.816;2024-03-17T12:17:27;17.60;78.40
82231;DHT22;71832;45.138;9.816;2024-03-17T12:19:56;17.60;77.80
82231;DHT22;71832;45.138;9.816;2024-03-17T12:22:25;17.60;78.70
82231;DHT22;71832;45.138;9.816;2024-03-17T12:24:57;17.60;78.70
82231;DHT22;71832;45.138;9.816;2024-03-17T12:27:27;17.60;78.90
82231;DHT22;71832;45.138;9.816;2024-03-17T12:29:56;17.60;79.00
82231;DHT22;71832;45.138;9.816;2024-03-17T12:32:24;17.60;78.60
82231;DHT22;71832;45.138;9.816;2024-03-17T12:34:55;17.70;77.50
82231;DHT22;71832;45.138;9.816;2024-03-17T12:37:25;17.80;77.80
82231;DHT22;71832;45.138;9.816;2024-03-17T12:40:03;17.80;78.50
82231;DHT22;71832;45.138;9.816;2024-03-17T12:42:32;17.90;77.50
82231;DHT22;71832;45.138;9.816;2024-03-17T12:45:01;18.00;77.20
82231;DHT22;71832;45.138;9.816;2024-03-17T12:47:31;18.00;76.60
82231;DHT22;71832;45.138;9.816;2024-03-17T12:50:02;18.00;76.00
82231;DHT22;71832;45.138;9.816;2024-03-17T12:52:39;18.00;74.90
82231;DHT22;71832;45.138;9.816;2024-03-17T12:55:09;18.00;75.10
82231;DHT22;71832;45.138;9.816;2024-03-17T12:58:07;18.00;75.10
82231;DHT22;71832;45.138;9.816;2024-03-17T13:01:04;18.10;75.60
82231;DHT22;71832;45.138;9.816;2024-03-17T13:03:35;18.10;74.40
82231;DHT22;71832;45.138;9.816;2024-03-17T13:06:04;18.10;74.50
82231;DHT22;71832;45.138;9.816;2024-03-17T13:08:34;18.10;74.60
82231;DHT22;71832;45.138;9.816;2024-03-17T13:11:03;18.10;73.00
82231;DHT22;71832;45.138;9.816;2024-03-17T13:13:31;18.10;73.50
82231;DHT22;71832;45.138;9.816;2024-03-17T13:16:00;18.20;75.80
82231;DHT22;71832;45.138;9.816;2024-03-17T13:18:29;18.20;74.70
82231;DHT22;71832;45.138;9.816;2024-03-17T13:20:57;18.20;75.00
82231;DHT22;71832;45.138;9.816;2024-03-17T13:23:27;18.20;74.70
82231;DHT22;71832;45.138;9.816;2024-03-17T13:25:57;18.30;74.00
82231;DHT22;71832;45.138;9.816;2024-03-17T13:28:25;18.30;76.00
82231;DHT22;71832;45.138;9.816;2024-03-17T13:30:54;18.30;74.50
82231;DHT22;71832;45.138;9.816;2024-03-17T13:33:23;18.30;74.10
82231;DHT22;71832;45.138;9.816;2024-03-17T13:35:51;18.30;74.70
82231;DHT22;71832;45.138;9.816;2024-03-17T13:38:20;18.40;75.30
82231;DHT22;71832;45.138;9.816;2024-03-17T13:40:48;18.30;71.70
82231;DHT22;71832;45.138;9.816;2024-03-17T13:43:15;18.30;73.40
82231;DHT22;71832;45.138;9.816;2024-03-17T13:45:43;18.20;72.00
82231;DHT22;71832;45.138;9.816;2024-03-17T13:48:13;18.30;75.50
82231;DHT22;71832;45.138;9.816;2024-03-17T13:50:41;18.20;74.60
82231;DHT22;71832;45.138;9.816;2024-03-17T13:53:11;18.20;73.50
82231;DHT22;71832;45.138;9.816;2024-03-17T13:55:38;18.20;74.80
82231;DHT22;71832;45.138;9.816;2024-03-17T13:58:06;18.20;74.60
82231;DHT22;71832;45.138;9.816;2024-03-17T14:00:34;18.20;74.80
82231;DHT22;71832;45.138;9.816;2024-03-17T14:03:04;18.20;73.00
82231;DHT22;71832;45.138;9.816;2024-03-17T14:05:32;18.20;73.10
82231;DHT22;71832;45.138;9.816;2024-03-17T14:08:02;18.20;74.60
82231;DHT22;71832;45.138;9.816;2024-03-17T14:10:31;18.20;74.10
82231;DHT22;71832;45.138;9.816;2024-03-17T14:13:00;18.20;74.10
82231;DHT22;71832;45.138;9.816;2024-03-17T14:15:29;18.20;75.10
82231;DHT22;71832;45.138;9.816;2024-03-17T14:17:57;18.20;75.00
82231;DHT22;71832;45.138;9.816;2024-03-17T14:20:26;18.30;74.50
82231;DHT22;71832;45.138;9.816;2024-03-17T14:22:55;18.30;73.80
82231;DHT22;71832;45.138;9.816;2024-03-17T14:25:24;18.30;74.20
82231;DHT22;71832;45.138;9.816;2024-03-17T14:27:53;18.40;74.00
82231;DHT22;71832;45.138;9.816;2024-03-17T14:30:21;18.40;74.30
82231;DHT22;71832;45.138;9.816;2024-03-17T14:32:49;18.40;74.40
82231;DHT22;71832;45.138;9.816;2024-03-17T14:35:18;18.30;74.20
82231;DHT22;71832;45.138;9.816;2024-03-17T14:37:48;18.40;75.00
82231;DHT22;71832;45.138;9.816;2024-03-17T14:40:19;18.30;74.70
82231;DHT22;71832;45.138;9.816;2024-03-17T14:42:51;18.30;74.40
82231;DHT22;71832;45.138;9.816;2024-03-17T14:45:21;18.40;74.30
82231;DHT22;71832;45.138;9.816;2024-03-17T14:47:53;18.30;72.00
82231;DHT22;71832;45.138;9.816;2024-03-17T14:50:21;18.30;71.60
82231;DHT22;71832;45.138;9.816;2024-03-17T14:52:50;18.30;73.10
82231;DHT22;71832;45.138;9.816;2024-03-17T14:55:19;18.30;73.90
82231;DHT22;71832;45.138;9.816;2024-03-17T14:57:48;18.30;74.40
82231;DHT22;71832;45.138;9.816;2024-03-17T15:00:16;18.20;75.40
82231;DHT22;71832;45.138;9.816;2024-03-17T15:02:45;18.10;74.80
82231;DHT22;71832;45.138;9.816;2024-03-17T15:05:14;18.00;74.80
82231;DHT22;71832;45.138;9.816;2024-03-17T15:07:43;18.00;75.30
82231;DHT22;71832;45.138;9.816;2024-03-17T15:10:12;18.10;75.80
82231;DHT22;71832;45.138;9.816;2024-03-17T15:12:40;18.00;76.50
82231;DHT22;71832;45.138;9.816;2024-03-17T15:15:08;18.00;75.30
82231;DHT22;71832;45.138;9.816;2024-03-17T15:17:37;18.00;75.40
82231;DHT22;71832;45.138;9.816;2024-03-17T15:20:08;18.00;75.60
82231;DHT22;71832;45.138;9.816;2024-03-17T15:22:48;18.00;76.70
82231;DHT22;71832;45.138;9.816;2024-03-17T15:25:17;18.00;73.90
82231;DHT22;71832;45.138;9.816;2024-03-17T15:27:47;17.80;73.50
82231;DHT22;71832;45.138;9.816;2024-03-17T15:30:16;17.80;74.20
82231;DHT22;71832;45.138;9.816;2024-03-17T15:32:46;17.90;74.70
82231;DHT22;71832;45.138;9.816;2024-03-17T15:35:15;17.90;75.60
82231;DHT22;71832;45.138;9.816;2024-03-17T15:37:43;17.80;76.30
82231;DHT22;71832;45.138;9.816;2024-03-17T15:40:12;17.80;75.80
82231;DHT22;71832;45.138;9.816;2024-03-17T15:42:45;17.80;76.80
82231;DHT22;71832;45.138;9.816;2024-03-17T15:45:14;17.80;77.10
82231;DHT22;71832;45.138;9.816;2024-03-17T15:47:42;17.80;77.00
82231;DHT22;71832;45.138;9.816;2024-03-17T15:50:12;17.70;76.70
82231;DHT22;71832;45.138;9.816;2024-03-17T15:52:43;17.60;76.50
82231;DHT22;71832;45.138;9.816;2024-03-17T15:55:11;17.60;77.30
82231;DHT22;71832;45.138;9.816;2024-03-17T15:57:40;17.50;78.30